createdAt,value
2018-09-09T00:01:08.385Z,18.00
2018-09-09T00:03:36.787Z,17.80
2018-09-09T00:06:06.472Z,17.70
2018-09-09T00:08:34.812Z,17.60
2018-09-09T00:11:03.292Z,17.60
2018-09-09T00:13:31.656Z,17.70
2018-09-09T00:16:00.144Z,17.70
2018-09-09T00:18:28.493Z,17.70
2018-09-09T00:20:56.912Z,17.60
2018-09-09T00:23:25.245Z,17.60
2018-09-09T00:25:53.622Z,17.60
2018-09-09T00:28:21.992Z,17.50
2018-09-09T00:30:50.425Z,17.40
2018-09-09T00:33:18.786Z,17.50
2018-09-09T00:35:47.134Z,17.70
2018-09-09T00:38:15.530Z,17.60
2018-09-09T00:40:43.896Z,17.50
2018-09-09T00:43:12.299Z,17.60
2018-09-09T00:45:40.646Z,17.60
2018-09-09T00:48:09.024Z,17.70
2018-09-09T00:50:42.676Z,17.70
2018-09-09T00:53:16.548Z,17.60
2018-09-09T00:55:45.494Z,17.50
2018-09-09T00:58:13.964Z,17.50
2018-09-09T01:01:18.064Z,17.50
2018-09-09T01:03:47.577Z,17.50
2018-09-09T01:06:15.931Z,17.50
2018-09-09T01:08:44.334Z,17.40
2018-09-09T01:11:17.923Z,17.30
2018-09-09T01:13:46.290Z,17.30
2018-09-09T01:16:14.714Z,17.20
2018-09-09T01:18:43.242Z,17.20
2018-09-09T01:21:11.615Z,17.10
2018-09-09T01:23:39.939Z,16.90
2018-09-09T01:26:08.314Z,16.70
2018-09-09T01:28:36.704Z,16.60
2018-09-09T01:31:05.149Z,16.60
2018-09-09T01:33:33.810Z,16.40
2018-09-09T01:36:03.830Z,16.30
2018-09-09T01:38:32.193Z,16.50
2018-09-09T01:41:00.568Z,16.50
2018-09-09T01:43:28.899Z,16.40
2018-09-09T01:45:57.291Z,16.40
2018-09-09T01:48:25.646Z,16.50
2018-09-09T01:50:54.009Z,16.30
2018-09-09T01:53:22.371Z,16.30
2018-09-09T01:55:50.708Z,16.50
2018-09-09T01:58:19.055Z,16.50
2018-09-09T02:00:47.404Z,16.50
2018-09-09T02:03:15.793Z,16.40
2018-09-09T02:05:44.157Z,16.30
2018-09-09T02:08:12.535Z,16.20
2018-09-09T02:10:40.850Z,16.30
2018-09-09T02:13:09.216Z,16.30
2018-09-09T02:15:37.631Z,16.30
2018-09-09T02:18:06.195Z,16.20
2018-09-09T02:20:34.552Z,16.20
2018-09-09T02:23:02.922Z,16.00
2018-09-09T02:25:31.266Z,16.10
2018-09-09T02:27:59.613Z,16.00
2018-09-09T02:30:27.949Z,15.90
2018-09-09T02:32:56.309Z,15.90
2018-09-09T02:35:24.672Z,15.80
2018-09-09T02:37:53.029Z,15.80
2018-09-09T02:40:21.408Z,15.70
2018-09-09T02:42:49.763Z,15.80
2018-09-09T02:45:18.120Z,15.90
2018-09-09T02:47:46.487Z,15.90
2018-09-09T02:50:14.854Z,15.90
2018-09-09T02:52:43.196Z,15.90
2018-09-09T02:55:11.640Z,15.90
2018-09-09T02:57:39.979Z,15.90
2018-09-09T03:00:08.426Z,15.70
2018-09-09T03:02:36.903Z,15.60
2018-09-09T03:05:05.272Z,15.50
2018-09-09T03:07:33.598Z,15.50
2018-09-09T03:10:01.963Z,15.60
2018-09-09T03:12:30.266Z,15.70
2018-09-09T03:14:58.699Z,15.70
2018-09-09T03:17:27.046Z,15.80
2018-09-09T03:19:55.419Z,15.80
2018-09-09T03:22:23.773Z,15.70
2018-09-09T03:24:52.140Z,15.50
2018-09-09T03:27:20.458Z,15.50
2018-09-09T03:29:48.791Z,15.50
2018-09-09T03:32:17.165Z,15.60
2018-09-09T03:34:45.499Z,15.60
2018-09-09T03:37:13.864Z,15.60
2018-09-09T03:39:42.214Z,15.50
2018-09-09T03:42:10.582Z,15.50
2018-09-09T03:44:38.930Z,15.40
2018-09-09T03:47:07.332Z,15.40
2018-09-09T03:49:35.688Z,15.30
2018-09-09T03:52:04.305Z,15.10
2018-09-09T03:54:32.672Z,15.00
2018-09-09T03:57:01.052Z,14.90
2018-09-09T03:59:29.381Z,14.90
2018-09-09T04:01:57.767Z,14.80
2018-09-09T04:04:26.120Z,14.90
2018-09-09T04:06:54.470Z,15.00
2018-09-09T04:09:22.820Z,15.20
2018-09-09T04:11:51.232Z,15.10
2018-09-09T04:14:19.550Z,15.10
2018-09-09T04:16:47.884Z,15.10
2018-09-09T04:19:16.294Z,15.00
2018-09-09T04:21:48.986Z,15.00
2018-09-09T04:24:17.333Z,14.90
2018-09-09T04:26:45.708Z,14.70
2018-09-09T04:29:14.447Z,14.60
2018-09-09T04:31:42.872Z,14.70
2018-09-09T04:34:11.550Z,14.80
2018-09-09T04:36:39.919Z,14.90
2018-09-09T04:39:11.730Z,14.80
2018-09-09T04:41:40.334Z,14.80
2018-09-09T04:44:09.647Z,14.90
2018-09-09T04:46:38.284Z,14.80
2018-09-09T04:49:07.139Z,14.80
2018-09-09T04:51:35.484Z,14.80
2018-09-09T04:54:03.883Z,14.80
2018-09-09T04:56:32.240Z,14.80
2018-09-09T04:59:00.614Z,14.90
2018-09-09T05:01:29.065Z,14.90
2018-09-09T05:03:57.485Z,15.00
2018-09-09T05:06:25.873Z,14.90
2018-09-09T05:08:54.245Z,14.80
2018-09-09T05:11:22.583Z,14.90
2018-09-09T05:13:51.064Z,14.90
2018-09-09T05:16:19.414Z,14.80
2018-09-09T05:18:47.798Z,14.80
2018-09-09T05:21:16.174Z,14.90
2018-09-09T05:23:44.561Z,14.80
2018-09-09T05:26:12.898Z,14.80
2018-09-09T05:28:41.259Z,14.80
2018-09-09T05:31:09.642Z,14.80
2018-09-09T05:33:38.027Z,14.70
2018-09-09T05:36:06.451Z,14.60
2018-09-09T05:38:34.831Z,14.60
2018-09-09T05:41:03.170Z,14.80
2018-09-09T05:43:31.523Z,14.90
2018-09-09T05:45:59.888Z,15.00
2018-09-09T05:48:28.235Z,15.10
2018-09-09T05:50:56.587Z,15.20
2018-09-09T05:53:24.976Z,15.60
2018-09-09T05:55:53.369Z,16.00
2018-09-09T05:58:21.691Z,15.80
2018-09-09T06:00:50.065Z,15.70
2018-09-09T06:03:19.067Z,15.70
2018-09-09T06:05:47.456Z,15.50
2018-09-09T06:08:15.853Z,15.30
2018-09-09T06:10:44.234Z,15.20
2018-09-09T06:13:12.654Z,15.30
2018-09-09T06:15:40.979Z,15.40
2018-09-09T06:18:09.341Z,15.70
2018-09-09T06:20:37.724Z,15.70
2018-09-09T06:23:06.485Z,15.70
2018-09-09T06:25:34.947Z,15.80
2018-09-09T06:28:03.333Z,16.00
2018-09-09T06:30:31.660Z,16.00
2018-09-09T06:33:00.029Z,16.10
2018-09-09T06:35:28.418Z,16.00
2018-09-09T06:37:56.810Z,16.10
2018-09-09T06:40:25.147Z,16.20
2018-09-09T06:42:53.629Z,16.30
2018-09-09T06:45:21.959Z,16.40
2018-09-09T06:47:50.314Z,16.50
2018-09-09T06:50:18.713Z,16.50
2018-09-09T06:52:47.050Z,16.50
2018-09-09T06:55:15.640Z,16.60
2018-09-09T06:57:44.282Z,16.70
2018-09-09T07:00:12.674Z,16.60
2018-09-09T07:02:41.093Z,16.70
2018-09-09T07:05:09.498Z,16.60
2018-09-09T07:07:38.203Z,16.60
2018-09-09T07:10:06.615Z,16.90
2018-09-09T07:12:35.600Z,16.90
2018-09-09T07:15:04.008Z,17.00
2018-09-09T07:17:32.394Z,17.00
2018-09-09T07:20:00.795Z,17.10
2018-09-09T07:22:29.242Z,17.20
2018-09-09T07:24:57.851Z,17.30
2018-09-09T07:27:26.264Z,17.40
2018-09-09T07:29:54.631Z,17.50
2018-09-09T07:32:23.043Z,17.50
2018-09-09T07:34:51.482Z,17.70
2018-09-09T07:37:19.955Z,17.70
2018-09-09T07:39:48.347Z,17.90
2018-09-09T07:42:16.765Z,17.90
2018-09-09T07:44:45.195Z,17.80
2018-09-09T07:47:13.561Z,17.70
2018-09-09T07:49:42.045Z,17.80
2018-09-09T07:52:10.602Z,17.90
2018-09-09T07:54:38.978Z,18.30
2018-09-09T07:57:07.478Z,19.30
2018-09-09T07:59:35.837Z,19.80
2018-09-09T08:02:04.325Z,19.80
2018-09-09T08:04:32.711Z,19.50
2018-09-09T08:07:01.166Z,19.60
2018-09-09T08:09:29.535Z,19.60
2018-09-09T08:11:57.945Z,19.40
2018-09-09T08:14:34.475Z,19.40
2018-09-09T08:17:02.844Z,19.30
2018-09-09T08:19:31.191Z,19.10
2018-09-09T08:21:59.566Z,19.20
2018-09-09T08:24:28.012Z,19.80
2018-09-09T08:26:56.370Z,21.00
2018-09-09T08:29:24.764Z,22.10
2018-09-09T08:31:53.119Z,23.30
2018-09-09T08:34:21.522Z,23.70
2018-09-09T08:36:49.915Z,24.80
2018-09-09T08:39:18.301Z,25.10
2018-09-09T08:41:46.679Z,24.60
2018-09-09T08:44:15.094Z,24.20
2018-09-09T08:46:43.469Z,23.50
2018-09-09T08:49:12.902Z,23.00
2018-09-09T08:51:41.285Z,23.30
2018-09-09T08:54:09.581Z,24.00
2018-09-09T08:56:37.971Z,24.60
2018-09-09T08:59:06.351Z,24.50
2018-09-09T09:01:34.741Z,24.70
2018-09-09T09:04:03.100Z,24.70
2018-09-09T09:06:31.527Z,25.20
2018-09-09T09:08:59.959Z,24.30
2018-09-09T09:11:28.422Z,23.80
2018-09-09T09:13:56.816Z,23.90
2018-09-09T09:16:25.217Z,24.60
2018-09-09T09:18:53.559Z,25.70
2018-09-09T09:21:21.923Z,26.60
2018-09-09T09:23:50.256Z,27.30
2018-09-09T09:26:18.646Z,27.50
2018-09-09T09:28:47.036Z,27.60
2018-09-09T09:31:15.399Z,28.30
2018-09-09T09:33:43.828Z,28.30
2018-09-09T09:36:12.345Z,28.30
2018-09-09T09:38:41.604Z,27.60
2018-09-09T09:41:09.962Z,26.60
2018-09-09T09:43:38.423Z,25.30
2018-09-09T09:46:06.839Z,24.70
2018-09-09T09:48:35.178Z,24.40
2018-09-09T09:51:03.533Z,24.20
2018-09-09T09:53:31.919Z,24.10
2018-09-09T09:56:00.323Z,24.10
2018-09-09T09:58:28.774Z,23.80
2018-09-09T10:00:59.905Z,23.70
2018-09-09T10:03:28.350Z,23.50
2018-09-09T10:05:56.690Z,23.00
2018-09-09T10:08:25.150Z,22.70
2018-09-09T10:10:53.645Z,22.70
2018-09-09T10:13:22.050Z,22.40
2018-09-09T10:15:50.482Z,22.60
2018-09-09T10:18:18.887Z,22.70
2018-09-09T10:20:47.828Z,22.60
2018-09-09T10:23:16.243Z,22.70
2018-09-09T10:25:44.615Z,22.60
2018-09-09T10:28:13.093Z,22.50
2018-09-09T10:30:41.490Z,22.50
2018-09-09T10:33:09.886Z,22.60
2018-09-09T10:35:38.259Z,22.50
2018-09-09T10:38:06.650Z,22.60
2018-09-09T10:40:35.076Z,22.50
2018-09-09T10:43:03.447Z,22.60
2018-09-09T10:45:31.827Z,22.70
2018-09-09T10:48:00.303Z,22.90
2018-09-09T10:50:28.970Z,23.10
2018-09-09T10:52:57.291Z,23.40
2018-09-09T10:55:25.726Z,23.80
2018-09-09T10:57:54.120Z,23.80
2018-09-09T11:00:22.514Z,24.20
2018-09-09T11:02:50.824Z,24.20
2018-09-09T11:05:19.210Z,24.30
2018-09-09T11:07:47.555Z,24.70
2018-09-09T11:10:15.960Z,25.10
2018-09-09T11:12:44.333Z,25.60
2018-09-09T11:15:12.633Z,25.50
2018-09-09T11:17:41.002Z,25.60
2018-09-09T11:20:09.368Z,25.90
2018-09-09T11:22:37.754Z,26.70
2018-09-09T11:25:06.253Z,26.90
2018-09-09T11:27:34.573Z,26.60
2018-09-09T11:30:03.128Z,26.30
2018-09-09T11:32:31.325Z,26.60
2018-09-09T11:34:59.677Z,26.50
2018-09-09T11:37:28.042Z,26.70
2018-09-09T11:39:56.408Z,27.00
2018-09-09T11:42:24.793Z,27.00
2018-09-09T11:44:53.313Z,27.20
2018-09-09T11:47:21.681Z,27.40
2018-09-09T11:49:50.096Z,27.50
2018-09-09T11:52:18.462Z,27.50
2018-09-09T11:54:46.829Z,26.70
2018-09-09T11:57:15.256Z,26.50
2018-09-09T11:59:43.618Z,26.50
2018-09-09T12:02:11.982Z,26.70
2018-09-09T12:04:40.371Z,26.80
2018-09-09T12:07:08.735Z,27.20
2018-09-09T12:09:37.191Z,27.70
2018-09-09T12:12:05.565Z,27.80
2018-09-09T12:14:33.947Z,28.20
2018-09-09T12:17:02.290Z,27.70
2018-09-09T12:19:30.651Z,27.70
2018-09-09T12:21:59.644Z,28.10
2018-09-09T12:24:29.242Z,28.50
2018-09-09T12:26:58.175Z,28.80
2018-09-09T12:29:26.623Z,29.40
2018-09-09T12:31:54.973Z,30.30
2018-09-09T12:34:23.303Z,30.90
2018-09-09T12:36:51.719Z,30.40
2018-09-09T12:39:20.190Z,30.30
2018-09-09T12:41:48.535Z,29.90
2018-09-09T12:44:22.138Z,29.00
2018-09-09T12:46:55.733Z,28.30
2018-09-09T12:49:24.088Z,28.30
2018-09-09T12:51:53.043Z,28.30
2018-09-09T12:54:21.423Z,28.70
2018-09-09T12:56:49.836Z,28.90
2018-09-09T12:59:18.227Z,28.90
2018-09-09T13:01:46.642Z,28.90
2018-09-09T13:04:14.973Z,29.20
2018-09-09T13:06:43.362Z,29.20
2018-09-09T13:09:11.751Z,29.20
2018-09-09T13:11:40.176Z,29.00
2018-09-09T13:14:08.571Z,29.00
2018-09-09T13:16:36.964Z,29.10
2018-09-09T13:19:05.425Z,29.10
2018-09-09T13:21:33.843Z,29.50
2018-09-09T13:24:02.199Z,30.20
2018-09-09T13:26:30.615Z,30.00
2018-09-09T13:28:58.986Z,29.50
2018-09-09T13:31:27.398Z,28.80
2018-09-09T13:33:55.835Z,28.80
2018-09-09T13:36:24.282Z,29.50
2018-09-09T13:38:52.683Z,29.70
2018-09-09T13:41:21.071Z,29.30
2018-09-09T13:43:49.475Z,28.50
2018-09-09T13:46:17.869Z,28.70
2018-09-09T13:48:46.260Z,29.10
2018-09-09T13:51:14.634Z,28.80
2018-09-09T13:53:43.133Z,28.60
2018-09-09T13:56:11.536Z,28.70
2018-09-09T13:58:39.889Z,28.40
2018-09-09T14:01:08.274Z,29.00
2018-09-09T14:03:37.214Z,29.00
2018-09-09T14:06:05.598Z,28.40
2018-09-09T14:08:33.931Z,28.20
2018-09-09T14:11:02.362Z,28.00
2018-09-09T14:13:30.800Z,27.90
2018-09-09T14:15:59.175Z,28.00
2018-09-09T14:18:27.602Z,28.40
2018-09-09T14:20:56.003Z,28.40
2018-09-09T14:23:24.388Z,28.30
2018-09-09T14:25:52.863Z,28.00
2018-09-09T14:28:21.209Z,27.90
2018-09-09T14:30:49.719Z,28.30
2018-09-09T14:33:18.496Z,28.70
2018-09-09T14:35:46.854Z,28.50
2018-09-09T14:38:15.178Z,28.20
2018-09-09T14:40:43.579Z,28.00
2018-09-09T14:43:11.945Z,28.20
2018-09-09T14:45:40.375Z,28.00
2018-09-09T14:48:08.742Z,27.80
2018-09-09T14:50:37.078Z,28.20
2018-09-09T14:53:05.545Z,28.10
2018-09-09T14:55:34.258Z,27.70
2018-09-09T14:58:02.637Z,27.60
2018-09-09T15:00:31.090Z,27.70
2018-09-09T15:02:59.570Z,28.10
2018-09-09T15:05:28.685Z,28.10
2018-09-09T15:07:57.114Z,28.00
2018-09-09T15:10:25.527Z,28.00
2018-09-09T15:12:53.899Z,28.20
2018-09-09T15:15:22.303Z,28.30
2018-09-09T15:17:50.710Z,28.20
2018-09-09T15:20:19.091Z,28.10
2018-09-09T15:22:47.553Z,27.80
2018-09-09T15:25:15.983Z,27.50
2018-09-09T15:27:44.369Z,27.00
2018-09-09T15:30:12.780Z,26.80
2018-09-09T15:32:41.174Z,26.70
2018-09-09T15:35:10.269Z,26.50
2018-09-09T15:37:38.717Z,26.40
2018-09-09T15:40:07.274Z,26.20
2018-09-09T15:42:35.560Z,26.20
2018-09-09T15:45:03.912Z,26.20
2018-09-09T15:47:32.290Z,26.00
2018-09-09T15:50:00.682Z,25.90
2018-09-09T15:52:29.093Z,25.80
2018-09-09T15:54:57.436Z,25.60
2018-09-09T15:57:25.832Z,25.60
2018-09-09T15:59:54.337Z,25.70
2018-09-09T16:02:22.767Z,25.70
2018-09-09T16:04:51.158Z,25.70
2018-09-09T16:07:19.572Z,25.80
2018-09-09T16:09:48.008Z,25.80
2018-09-09T16:12:16.376Z,25.60
2018-09-09T16:14:44.792Z,25.60
2018-09-09T16:17:13.201Z,25.50
2018-09-09T16:19:41.596Z,25.40
2018-09-09T16:22:10.107Z,25.40
2018-09-09T16:24:43.356Z,25.20
2018-09-09T16:27:12.671Z,25.20
2018-09-09T16:29:41.079Z,24.70
2018-09-09T16:32:09.438Z,24.40
2018-09-09T16:34:37.851Z,24.40
2018-09-09T16:37:06.266Z,24.30
2018-09-09T16:39:34.660Z,24.40
2018-09-09T16:42:03.092Z,24.50
2018-09-09T16:44:31.553Z,24.50
2018-09-09T16:46:59.930Z,24.60
2018-09-09T16:49:28.259Z,24.60
2018-09-09T16:51:56.706Z,24.60
2018-09-09T16:54:25.106Z,24.50
2018-09-09T16:56:53.593Z,24.50
2018-09-09T16:59:22.211Z,24.50
2018-09-09T17:01:50.622Z,24.60
2018-09-09T17:04:19.066Z,24.40
2018-09-09T17:06:47.466Z,24.40
2018-09-09T17:09:15.860Z,24.40
2018-09-09T17:11:44.251Z,24.20
2018-09-09T17:14:12.703Z,24.20
2018-09-09T17:16:41.105Z,24.10
2018-09-09T17:19:09.526Z,24.10
2018-09-09T17:21:37.917Z,24.10
2018-09-09T17:24:06.375Z,23.80
2018-09-09T17:26:34.742Z,23.70
2018-09-09T17:29:03.140Z,23.60
2018-09-09T17:31:31.627Z,23.50
2018-09-09T17:34:00.001Z,23.50
2018-09-09T17:36:28.397Z,23.50
2018-09-09T17:38:56.851Z,23.50
2018-09-09T17:41:25.279Z,23.40
2018-09-09T17:43:53.623Z,23.30
2018-09-09T17:46:22.016Z,23.20
2018-09-09T17:48:50.354Z,23.20
2018-09-09T17:51:18.776Z,23.20
2018-09-09T17:53:47.172Z,23.10
2018-09-09T17:56:16.377Z,23.10
2018-09-09T17:58:44.758Z,22.90
2018-09-09T18:01:13.214Z,22.80
2018-09-09T18:03:41.611Z,22.80
2018-09-09T18:06:10.047Z,22.80
2018-09-09T18:08:38.450Z,22.80
2018-09-09T18:11:06.871Z,22.60
2018-09-09T18:13:35.384Z,22.40
2018-09-09T18:16:03.797Z,22.30
2018-09-09T18:18:32.748Z,22.30
2018-09-09T18:21:01.136Z,22.30
2018-09-09T18:23:32.727Z,22.10
2018-09-09T18:26:01.125Z,22.10
2018-09-09T18:28:29.518Z,21.90
2018-09-09T18:30:58.058Z,22.00
2018-09-09T18:33:26.396Z,21.90
2018-09-09T18:35:54.845Z,22.00
2018-09-09T18:38:23.204Z,22.00
2018-09-09T18:40:59.757Z,21.90
2018-09-09T18:43:28.854Z,21.80
2018-09-09T18:45:58.025Z,21.80
2018-09-09T18:48:26.491Z,21.80
2018-09-09T18:50:54.882Z,21.60
2018-09-09T18:53:25.510Z,21.50
2018-09-09T18:55:54.457Z,21.30
2018-09-09T18:58:22.841Z,21.40
2018-09-09T19:00:51.541Z,21.30
2018-09-09T19:03:19.983Z,21.40
2018-09-09T19:05:48.328Z,21.30
2018-09-09T19:08:16.724Z,21.20
2018-09-09T19:10:45.173Z,20.90
2018-09-09T19:13:13.606Z,21.00
2018-09-09T19:15:41.964Z,20.90
2018-09-09T19:18:10.406Z,20.70
2018-09-09T19:20:38.847Z,20.60
2018-09-09T19:23:07.309Z,20.40
2018-09-09T19:25:35.670Z,20.30
2018-09-09T19:28:04.085Z,20.30
2018-09-09T19:30:32.480Z,20.30
2018-09-09T19:33:01.005Z,20.40
2018-09-09T19:35:29.402Z,20.40
2018-09-09T19:37:57.835Z,20.20
2018-09-09T19:40:26.909Z,20.20
2018-09-09T19:42:55.330Z,20.20
2018-09-09T19:45:23.755Z,20.10
2018-09-09T19:47:52.133Z,20.00
2018-09-09T19:50:20.589Z,19.90
2018-09-09T19:52:48.990Z,19.80
2018-09-09T19:55:17.340Z,19.90
2018-09-09T19:57:45.746Z,20.00
2018-09-09T20:00:14.113Z,19.90
2018-09-09T20:02:42.550Z,19.80
2018-09-09T20:05:10.949Z,19.80
2018-09-09T20:07:39.376Z,19.70
2018-09-09T20:10:07.859Z,19.60
2018-09-09T20:12:36.291Z,19.50
2018-09-09T20:15:04.919Z,19.60
2018-09-09T20:17:33.278Z,19.60
2018-09-09T20:20:01.687Z,19.60
2018-09-09T20:22:30.100Z,19.50
2018-09-09T20:24:58.534Z,19.40
2018-09-09T20:27:26.911Z,19.40
2018-09-09T20:29:55.285Z,19.30
2018-09-09T20:32:23.716Z,19.10
2018-09-09T20:34:52.095Z,19.00
2018-09-09T20:37:21.042Z,19.00
2018-09-09T20:39:49.510Z,19.00
2018-09-09T20:42:17.874Z,18.90
2018-09-09T20:44:46.255Z,19.00
2018-09-09T20:47:14.668Z,19.20
2018-09-09T20:49:43.066Z,19.00
2018-09-09T20:52:11.658Z,19.10
2018-09-09T20:54:40.075Z,19.10
2018-09-09T20:57:08.463Z,19.10
2018-09-09T20:59:36.790Z,19.00
2018-09-09T21:02:05.179Z,18.90
2018-09-09T21:04:33.585Z,18.90
2018-09-09T21:07:01.979Z,19.00
2018-09-09T21:09:30.407Z,19.00
2018-09-09T21:11:58.789Z,19.00
2018-09-09T21:14:27.190Z,19.00
2018-09-09T21:16:55.674Z,19.00
2018-09-09T21:19:24.067Z,19.10
2018-09-09T21:21:53.178Z,19.10
2018-09-09T21:24:21.547Z,18.90
2018-09-09T21:26:49.920Z,18.90
2018-09-09T21:29:18.293Z,18.70
2018-09-09T21:31:46.695Z,18.70
2018-09-09T21:34:15.065Z,18.70
2018-09-09T21:36:43.426Z,18.80
2018-09-09T21:39:19.126Z,18.70
2018-09-09T21:41:47.570Z,18.70
2018-09-09T21:44:15.937Z,18.60
2018-09-09T21:46:44.287Z,18.60
2018-09-09T21:49:12.679Z,18.60
2018-09-09T21:51:41.120Z,18.60
2018-09-09T21:54:09.491Z,18.50
2018-09-09T21:56:37.881Z,18.50
2018-09-09T21:59:06.234Z,18.40
2018-09-09T22:01:40.083Z,18.40
2018-09-09T22:04:08.466Z,18.40
2018-09-09T22:06:36.833Z,18.40
2018-09-09T22:09:08.207Z,18.40
2018-09-09T22:11:36.975Z,18.30
2018-09-09T22:14:05.341Z,18.40
2018-09-09T22:16:34.055Z,18.40
2018-09-09T22:19:02.851Z,18.40
2018-09-09T22:21:31.246Z,18.20
2018-09-09T22:23:59.649Z,18.10
2018-09-09T22:26:28.033Z,18.10
2018-09-09T22:28:56.421Z,18.20
2018-09-09T22:31:24.767Z,18.20
2018-09-09T22:33:53.066Z,18.20
2018-09-09T22:36:21.428Z,18.10
2018-09-09T22:38:49.813Z,18.10
2018-09-09T22:41:18.138Z,18.10
2018-09-09T22:43:46.489Z,18.00
2018-09-09T22:46:14.839Z,18.00
2018-09-09T22:48:43.196Z,18.00
2018-09-09T22:51:11.675Z,17.90
2018-09-09T22:53:40.036Z,17.90
2018-09-09T22:56:08.413Z,17.90
2018-09-09T22:58:36.803Z,17.90
2018-09-09T23:01:05.261Z,17.80
2018-09-09T23:03:33.622Z,17.80
2018-09-09T23:06:01.992Z,17.80
2018-09-09T23:08:30.374Z,17.80
2018-09-09T23:10:58.922Z,17.70
2018-09-09T23:13:27.293Z,17.70
2018-09-09T23:15:55.670Z,17.70
2018-09-09T23:18:24.010Z,17.70
2018-09-09T23:20:52.538Z,17.70
2018-09-09T23:23:20.874Z,17.60
2018-09-09T23:25:49.227Z,17.60
2018-09-09T23:28:17.562Z,17.50
2018-09-09T23:30:46.013Z,17.50
2018-09-09T23:33:14.360Z,17.40
2018-09-09T23:35:42.746Z,17.30
2018-09-09T23:38:11.075Z,17.20
2018-09-09T23:40:39.425Z,17.20
2018-09-09T23:43:07.857Z,17.20
2018-09-09T23:45:36.329Z,17.20
2018-09-09T23:48:04.933Z,17.00
2018-09-09T23:50:33.316Z,17.00
2018-09-09T23:53:01.662Z,17.10
2018-09-09T23:55:30.036Z,17.00
2018-09-09T23:57:58.364Z,17.00
